Time;durP1;ratioP1;P1;durP2;ratioP2;P2;SDS_P1;SDS_P2;PMS_P1;PMS_P2;Temp;Humidity;BMP_temperature;BMP_pressure;BME280_temperature;BME280_humidity;BME280_pressure;Samples;Min_cycle;Max_cycle;Signal;HPM_P1;HPM_P2
2021/12/31 00:02:04;;;;;;;5.32;3.50;;;8.00;99.90;;;;;;6196686;28;20034;-87
2021/12/31 00:05:05;;;;;;;4.68;3.60;;;8.10;99.90;;;;;;6202862;28;20061;-87
2021/12/31 00:08:05;;;;;;;9.18;3.95;;;8.30;99.90;;;;;;6215961;28;20025;-87
2021/12/31 00:11:06;;;;;;;6.30;3.47;;;8.20;99.90;;;;;;6204051;28;20132;-86
2021/12/31 00:14:07;;;;;;;6.45;3.38;;;7.90;99.90;;;;;;6203197;28;20030;-87
2021/12/31 00:17:07;;;;;;;5.55;3.97;;;8.00;99.90;;;;;;6200243;28;20026;-85
2021/12/31 00:20:16;;;;;;;5.45;3.17;;;8.00;99.90;;;;;;6216254;28;20030;-85
2021/12/31 00:23:20;;;;;;;7.25;3.20;;;8.10;99.90;;;;;;6214536;28;20029;-86
2021/12/31 00:26:20;;;;;;;3.55;2.83;;;8.20;99.90;;;;;;6202532;28;20116;-86
2021/12/31 00:29:21;;;;;;;4.05;3.00;;;8.20;99.90;;;;;;6200666;28;20030;-86
2021/12/31 00:32:22;;;;;;;5.60;2.80;;;;;;;;;;6199122;28;20061;-86
2021/12/31 00:35:23;;;;;;;3.10;2.63;;;8.30;99.90;;;;;;6217447;28;20529;-87
2021/12/31 00:38:24;;;;;;;3.22;2.90;;;;;;;;;;6217914;28;20674;-87
2021/12/31 00:41:24;;;;;;;6.40;3.20;;;8.00;99.90;;;;;;6223175;28;20084;-88
2021/12/31 00:44:25;;;;;;;3.85;3.25;;;7.90;99.90;;;;;;6210570;28;20045;-87
2021/12/31 00:47:26;;;;;;;3.90;3.10;;;;;;;;;;6207084;28;20021;-87
2021/12/31 00:50:27;;;;;;;5.65;3.10;;;7.50;99.90;;;;;;6238274;28;20438;-87
2021/12/31 00:53:27;;;;;;;3.63;2.95;;;7.70;99.90;;;;;;6197095;28;20041;-89
2021/12/31 00:56:28;;;;;;;5.28;3.30;;;;;;;;;;6202500;28;20038;-89
2021/12/31 00:59:32;;;;;;;5.53;3.22;;;7.70;99.90;;;;;;6215282;28;20021;-87
2021/12/31 01:02:33;;;;;;;5.45;3.30;;;7.40;99.90;;;;;;6204330;28;20030;-88
2021/12/31 01:05:34;;;;;;;4.95;3.30;;;7.40;99.90;;;;;;6198168;28;20064;-86
2021/12/31 01:08:34;;;;;;;6.10;3.20;;;7.20;99.90;;;;;;6201854;28;20022;-89
2021/12/31 01:11:35;;;;;;;7.20;3.33;;;7.90;99.90;;;;;;6221184;28;20137;-88
2021/12/31 01:14:40;;;;;;;5.65;3.38;;;;;;;;;;6215652;28;20042;-88
2021/12/31 01:20:41;;;;;;;5.72;3.47;;;7.20;99.90;;;;;;6213779;28;20014;-90
2021/12/31 01:23:42;;;;;;;5.57;3.60;;;7.40;99.90;;;;;;6196718;28;20468;-89
2021/12/31 01:26:42;;;;;;;4.88;3.13;;;7.50;99.90;;;;;;6206496;28;20037;-88
2021/12/31 01:29:43;;;;;;;8.25;3.00;;;;;;;;;;6199467;28;20061;-87
2021/12/31 01:32:45;;;;;;;3.45;2.88;;;7.50;99.90;;;;;;6212663;28;20112;-87
2021/12/31 01:35:46;;;;;;;4.57;3.17;;;;;;;;;;6197658;28;20037;-89
2021/12/31 01:38:47;;;;;;;4.07;3.40;;;7.50;99.90;;;;;;6215196;28;20284;-88
2021/12/31 01:41:48;;;;;;;4.38;2.90;;;;;;;;;;6199417;28;20025;-89
2021/12/31 01:44:57;;;;;;;5.00;3.20;;;7.30;99.90;;;;;;6215134;28;20455;-88
2021/12/31 01:48:05;;;;;;;4.60;2.83;;;7.20;99.90;;;;;;6204377;28;20045;-87
2021/12/31 01:51:06;;;;;;;3.97;3.05;;;7.20;99.90;;;;;;6212554;28;20037;-86
2021/12/31 01:54:07;;;;;;;7.43;3.20;;;;;;;;;;6214310;28;20037;-91
2021/12/31 01:57:08;;;;;;;4.43;3.05;;;7.30;99.90;;;;;;6210511;28;20026;-87
2021/12/31 02:00:10;;;;;;;7.13;2.80;;;7.40;99.90;;;;;;6198958;28;20026;-88
2021/12/31 02:03:10;;;;;;;4.13;2.70;;;8.00;99.90;;;;;;6200187;28;20073;-89
2021/12/31 02:06:11;;;;;;;4.88;3.00;;;7.70;99.90;;;;;;6195579;28;20029;-87
2021/12/31 02:09:13;;;;;;;5.03;2.60;;;;;;;;;;6197313;28;20084;-89
2021/12/31 02:12:13;;;;;;;3.85;3.10;;;7.20;99.90;;;;;;6211073;28;20066;-88
2021/12/31 02:15:18;;;;;;;5.25;3.22;;;7.10;99.90;;;;;;6210710;28;20036;-86
2021/12/31 02:18:19;;;;;;;5.68;3.55;;;6.80;99.90;;;;;;6201707;28;20077;-88
2021/12/31 02:21:21;;;;;;;6.00;3.78;;;6.80;99.90;;;;;;6196801;28;20030;-87
2021/12/31 02:24:24;;;;;;;7.32;4.10;;;6.80;99.90;;;;;;6196184;28;20060;-86
2021/12/31 02:27:25;;;;;;;6.93;4.18;;;6.60;99.90;;;;;;6193759;28;20034;-87
2021/12/31 02:30:27;;;;;;;4.65;3.78;;;6.70;99.90;;;;;;6196513;28;20032;-87
2021/12/31 02:33:28;;;;;;;4.55;3.72;;;;;;;;;;6191885;28;20503;-87
2021/12/31 02:36:29;;;;;;;4.63;3.72;;;6.70;99.90;;;;;;6231776;28;20025;-87
2021/12/31 02:39:30;;;;;;;7.60;3.50;;;6.80;99.90;;;;;;6215238;28;20052;-86
2021/12/31 02:42:31;;;;;;;6.65;4.75;;;;;;;;;;6221250;28;20037;-88
2021/12/31 02:45:36;;;;;;;6.15;3.10;;;;;;;;;;6221933;28;20138;-89
2021/12/31 02:48:37;;;;;;;4.13;2.83;;;;;;;;;;6219218;28;20160;-87
2021/12/31 02:51:38;;;;;;;5.93;3.30;;;;;;;;;;6221777;28;20032;-89
2021/12/31 02:54:41;;;;;;;5.03;3.75;;;6.40;99.90;;;;;;6224666;28;20084;-91
2021/12/31 02:57:43;;;;;;;7.13;4.10;;;;;;;;;;6230666;28;20053;-88
2021/12/31 03:00:44;;;;;;;5.70;3.30;;;;;;;;;;6220269;28;20048;-84
2021/12/31 03:03:45;;;;;;;9.57;3.95;;;;;;;;;;6220995;28;20116;-91
2021/12/31 03:06:46;;;;;;;7.95;3.40;;;6.60;99.90;;;;;;6228067;28;20033;-88
2021/12/31 03:09:48;;;;;;;5.47;3.67;;;6.70;99.90;;;;;;6213422;28;20029;-88
2021/12/31 03:12:54;;;;;;;8.40;3.95;;;6.80;99.90;;;;;;6210669;28;20043;-90
2021/12/31 03:15:55;;;;;;;5.55;3.10;;;6.70;99.90;;;;;;6219078;28;20537;-87
2021/12/31 03:18:56;;;;;;;7.20;3.05;;;6.70;99.90;;;;;;6214210;28;20029;-89
2021/12/31 03:21:57;;;;;;;3.25;2.83;;;7.20;99.90;;;;;;6208384;28;20035;-88
2021/12/31 03:24:58;;;;;;;3.53;3.05;;;6.50;99.90;;;;;;6209863;28;20382;-87
2021/12/31 03:27:58;;;;;;;4.60;3.15;;;6.50;99.90;;;;;;6213811;28;20356;-88
2021/12/31 03:30:59;;;;;;;4.50;2.85;;;;;;;;;;6221964;28;20116;-89
2021/12/31 03:34:00;;;;;;;5.32;3.20;;;6.50;99.90;;;;;;6230120;28;20446;-91
2021/12/31 03:37:01;;;;;;;3.78;3.15;;;;;;;;;;6215186;28;20052;-90
2021/12/31 03:40:02;;;;;;;9.45;3.13;;;6.50;99.90;;;;;;6226730;28;20026;-87
2021/12/31 03:43:02;;;;;;;5.97;3.00;;;6.40;99.90;;;;;;6206826;28;20124;-90
2021/12/31 03:46:03;;;;;;;6.20;3.15;;;6.10;99.90;;;;;;6208907;28;20044;-87
2021/12/31 03:49:04;;;;;;;8.93;3.70;;;;;;;;;;6208360;28;20463;-88
2021/12/31 03:52:05;;;;;;;7.95;3.50;;;6.00;99.90;;;;;;6231453;28;20399;-92
2021/12/31 03:55:06;;;;;;;5.82;2.97;;;6.00;99.90;;;;;;6208044;28;20034;-89
2021/12/31 03:58:07;;;;;;;5.10;2.70;;;6.40;99.90;;;;;;6204143;28;20120;-88
2021/12/31 04:01:08;;;;;;;3.33;2.83;;;6.90;99.90;;;;;;6206854;28;20029;-87
2021/12/31 04:04:09;;;;;;;5.50;2.60;;;6.00;99.90;;;;;;6211587;28;20467;-87
2021/12/31 04:07:10;;;;;;;4.25;3.30;;;5.80;99.90;;;;;;6228426;28;20408;-89
2021/12/31 04:10:11;;;;;;;7.75;4.03;;;;;;;;;;6208915;28;20037;-88
2021/12/31 04:13:12;;;;;;;6.63;4.40;;;;;;;;;;6225161;28;20045;-88
2021/12/31 04:16:13;;;;;;;6.10;4.30;;;;;;;;;;6221889;28;20025;-88
2021/12/31 04:19:14;;;;;;;7.43;5.00;;;5.50;99.90;;;;;;6222507;28;20025;-87
2021/12/31 04:22:14;;;;;;;6.63;3.55;;;6.10;99.90;;;;;;6213108;28;20029;-89
2021/12/31 04:25:15;;;;;;;5.78;3.70;;;;;;;;;;6227404;28;20064;-89
2021/12/31 04:28:16;;;;;;;7.30;4.15;;;6.10;99.90;;;;;;6225626;28;20124;-90
2021/12/31 04:31:17;;;;;;;7.18;4.15;;;;;;;;;;6227617;28;20076;-92
2021/12/31 04:34:18;;;;;;;5.70;3.55;;;;;;;;;;6238155;28;20022;-89
2021/12/31 04:37:19;;;;;;;3.95;3.40;;;6.70;99.90;;;;;;6224444;28;20052;-86
2021/12/31 04:40:20;;;;;;;4.25;3.30;;;;;;;;;;6207500;28;20025;-87
2021/12/31 04:43:20;;;;;;;3.67;3.10;;;6.20;99.90;;;;;;6223599;28;20149;-87
2021/12/31 04:46:21;;;;;;;5.72;3.00;;;;;;;;;;6227800;28;20037;-87
2021/12/31 04:49:22;;;;;;;4.63;3.50;;;6.10;99.90;;;;;;6225095;28;20091;-87
2021/12/31 04:52:23;;;;;;;8.57;4.15;;;3.60;99.90;;;;;;6206692;28;20044;-88
2021/12/31 04:55:24;;;;;;;4.78;3.22;;;5.80;99.90;;;;;;6209852;28;20037;-87
2021/12/31 04:58:25;;;;;;;5.53;3.65;;;;;;;;;;6207222;28;20065;-88
2021/12/31 05:01:25;;;;;;;6.05;3.60;;;5.60;99.90;;;;;;6229308;28;20029;-88
2021/12/31 05:04:26;;;;;;;8.30;3.95;;;5.50;99.90;;;;;;6206784;28;20039;-88
2021/12/31 05:07:27;;;;;;;6.38;3.85;;;;;;;;;;6208961;28;20065;-89
2021/12/31 05:10:31;;;;;;;5.70;3.35;;;5.50;99.90;;;;;;6227023;28;20375;-87
2021/12/31 05:13:31;;;;;;;4.50;3.30;;;6.10;99.90;;;;;;6208433;28;20040;-88
2021/12/31 05:16:35;;;;;;;6.10;3.80;;;6.30;99.90;;;;;;6212063;28;20029;-88
2021/12/31 05:19:36;;;;;;;6.25;2.95;;;6.10;99.90;;;;;;6208752;28;20104;-91
2021/12/31 05:22:36;;;;;;;3.65;3.13;;;6.00;99.90;;;;;;6200137;28;20055;-88
2021/12/31 05:25:37;;;;;;;4.78;3.17;;;6.00;99.90;;;;;;6210649;28;20033;-88
2021/12/31 05:28:38;;;;;;;4.70;3.72;;;;;;;;;;6204750;28;20287;-90
2021/12/31 05:31:39;;;;;;;3.67;3.00;;;;;;;;;;6218198;28;20403;-89
2021/12/31 05:34:40;;;;;;;3.22;2.85;;;;;;;;;;6238728;28;20106;-87
2021/12/31 05:37:41;;;;;;;3.85;3.00;;;;;;;;;;6235533;28;20045;-86
2021/12/31 05:40:42;;;;;;;22.92;11.07;;;;;;;;;;6218639;28;20026;-87
2021/12/31 05:43:43;;;;;;;8.68;4.53;;;;;;;;;;6213404;28;20080;-87
2021/12/31 05:46:48;;;;;;;4.10;2.97;;;5.80;99.90;;;;;;6213292;28;20052;-88
2021/12/31 05:49:49;;;;;;;3.90;3.50;;;;;;;;;;6199330;28;20368;-88
2021/12/31 05:52:50;;;;;;;14.63;10.68;;;5.50;99.90;;;;;;6212360;28;20041;-90
2021/12/31 05:55:50;;;;;;;13.50;8.65;;;5.70;99.90;;;;;;6217972;28;20057;-87
2021/12/31 05:58:51;;;;;;;19.17;11.57;;;;;;;;;;6198621;28;20026;-87
2021/12/31 06:01:52;;;;;;;10.43;6.60;;;5.40;99.90;;;;;;6213593;28;20530;-89
2021/12/31 06:04:53;;;;;;;8.00;5.30;;;5.20;99.90;;;;;;6198021;28;20108;-86
2021/12/31 06:07:56;;;;;;;4.55;3.38;;;;;;;;;;6199616;28;20042;-88
2021/12/31 06:10:57;;;;;;;6.38;4.10;;;5.20;99.90;;;;;;6214827;28;20096;-90
2021/12/31 06:14:02;;;;;;;5.32;3.50;;;;;;;;;;6194815;28;20030;-87
2021/12/31 06:17:06;;;;;;;6.00;3.67;;;5.50;99.90;;;;;;6210560;28;20080;-89
2021/12/31 06:20:08;;;;;;;6.32;3.92;;;5.50;99.90;;;;;;6214610;28;20041;-89
2021/12/31 06:23:08;;;;;;;5.80;3.35;;;5.60;99.90;;;;;;6198082;28;20473;-88
2021/12/31 06:26:10;;;;;;;5.45;3.03;;;6.10;99.90;;;;;;6203061;28;20072;-88
2021/12/31 06:29:10;;;;;;;4.20;3.33;;;6.00;99.90;;;;;;6200187;28;20026;-87
2021/12/31 06:32:11;;;;;;;6.93;3.90;;;7.20;99.90;;;;;;6201780;28;20042;-87
2021/12/31 06:35:11;;;;;;;4.38;3.53;;;5.80;99.90;;;;;;6201502;28;20120;-90
2021/12/31 06:38:12;;;;;;;5.78;3.20;;;6.20;99.90;;;;;;6191242;28;20412;-81
2021/12/31 06:41:15;;;;;;;5.82;3.33;;;5.80;99.90;;;;;;6219056;28;20061;-83
2021/12/31 06:44:16;;;;;;;5.20;2.75;;;6.00;99.90;;;;;;6227127;28;20396;-81
2021/12/31 06:47:16;;;;;;;4.20;2.85;;;5.70;99.90;;;;;;6190356;28;20113;-81
2021/12/31 06:50:17;;;;;;;4.30;3.00;;;5.40;99.90;;;;;;6222537;28;20072;-79
2021/12/31 06:53:18;;;;;;;2.95;2.65;;;5.30;99.90;;;;;;6202314;28;20045;-82
2021/12/31 06:56:18;;;;;;;4.78;3.00;;;5.40;99.90;;;;;;6213978;28;20128;-86
2021/12/31 06:59:19;;;;;;;5.30;3.88;;;5.60;99.90;;;;;;6196926;28;20030;-85
2021/12/31 07:02:19;;;;;;;5.68;4.10;;;7.90;99.90;;;;;;6203352;28;20033;-86
2021/12/31 07:05:20;;;;;;;8.43;4.38;;;;;;;;;;6201303;28;20029;-84
2021/12/31 07:08:21;;;;;;;8.25;3.78;;;5.10;99.90;;;;;;6222527;28;20034;-83
2021/12/31 07:11:22;;;;;;;4.55;3.80;;;;;;;;;;6217148;28;20057;-82
2021/12/31 07:14:23;;;;;;;6.72;3.78;;;5.30;99.90;;;;;;6222612;28;20026;-80
2021/12/31 07:17:23;;;;;;;7.60;4.30;;;5.40;99.90;;;;;;6214622;28;20127;-80
2021/12/31 07:20:24;;;;;;;4.60;3.75;;;5.40;99.90;;;;;;6208358;28;20484;-78
2021/12/31 07:23:24;;;;;;;7.13;4.43;;;6.40;99.90;;;;;;6195122;28;20096;-84
2021/12/31 07:26:25;;;;;;;9.00;4.15;;;5.50;99.90;;;;;;6195397;28;20033;-82
2021/12/31 07:29:37;;;;;;;6.68;4.43;;;5.60;99.90;;;;;;6231044;28;20077;-82
2021/12/31 07:32:38;;;;;;;5.80;3.45;;;6.90;99.90;;;;;;6225964;28;20066;-82
2021/12/31 07:35:39;;;;;;;3.95;3.15;;;5.80;99.90;;;;;;6193963;28;20040;-84
2021/12/31 07:38:47;;;;;;;8.27;4.00;;;5.90;99.90;;;;;;6192828;28;20073;-80
2021/12/31 07:41:48;;;;;;;5.47;3.97;;;5.80;99.90;;;;;;6210187;28;20038;-83
2021/12/31 07:44:49;;;;;;;6.07;3.60;;;5.90;99.90;;;;;;6219928;28;20084;-81
2021/12/31 07:47:50;;;;;;;4.23;3.03;;;7.10;99.90;;;;;;6207070;28;20053;-82
2021/12/31 07:50:52;;;;;;;3.53;2.60;;;5.70;99.90;;;;;;6203975;28;20281;-83
2021/12/31 07:53:52;;;;;;;10.65;4.03;;;5.70;99.90;;;;;;6191834;28;20069;-86
2021/12/31 07:56:53;;;;;;;8.05;4.72;;;;;;;;;;6209268;28;20029;-81
2021/12/31 07:59:54;;;;;;;71.38;38.67;;;5.30;99.90;;;;;;6223137;28;20380;-81
2021/12/31 08:02:55;;;;;;;20.20;13.75;;;7.00;99.90;;;;;;6218930;28;20076;-81
2021/12/31 08:05:56;;;;;;;11.23;7.07;;;5.20;99.90;;;;;;6224500;28;20026;-84
2021/12/31 08:08:57;;;;;;;4.28;2.83;;;;;;;;;;6196213;28;20095;-82
2021/12/31 08:11:57;;;;;;;4.78;3.30;;;6.30;99.90;;;;;;6204244;28;20033;-84
2021/12/31 08:14:58;;;;;;;11.60;7.68;;;7.40;99.90;;;;;;6188126;28;20034;-81
2021/12/31 08:17:59;;;;;;;7.38;5.80;;;8.90;99.90;;;;;;6191758;28;20044;-82
2021/12/31 08:20:59;;;;;;;8.55;5.78;;;9.70;99.90;;;;;;6211496;28;20037;-81
2021/12/31 08:24:00;;;;;;;4.50;3.97;;;10.60;99.90;;;;;;6229832;28;20038;-81
2021/12/31 08:27:00;;;;;;;4.05;3.63;;;10.70;99.90;;;;;;6225789;28;20029;-84
2021/12/31 08:30:01;;;;;;;4.60;3.10;;;11.30;99.90;;;;;;6198724;28;20038;-84
2021/12/31 08:33:02;;;;;;;11.65;8.32;;;11.90;99.90;;;;;;6211022;28;20079;-87
2021/12/31 08:36:03;;;;;;;12.05;6.47;;;12.40;99.90;;;;;;6206702;28;20056;-85
2021/12/31 08:39:04;;;;;;;14.27;6.95;;;12.70;99.90;;;;;;6204226;28;20045;-84
2021/12/31 08:42:05;;;;;;;9.13;6.78;;;12.50;99.90;;;;;;6189810;28;20418;-85
2021/12/31 08:45:06;;;;;;;5.97;4.10;;;12.00;99.90;;;;;;6192604;28;20107;-82
2021/12/31 08:48:07;;;;;;;4.97;2.97;;;12.10;99.90;;;;;;6228896;28;20472;-83
2021/12/31 08:51:07;;;;;;;6.07;3.70;;;12.30;99.90;;;;;;6188019;28;20030;-81
2021/12/31 08:54:08;;;;;;;3.05;2.63;;;12.20;99.90;;;;;;6225979;28;20475;-84
2021/12/31 08:57:08;;;;;;;2.83;2.55;;;12.30;99.90;;;;;;6191540;28;20033;-84
2021/12/31 09:00:10;;;;;;;4.18;3.00;;;12.30;99.90;;;;;;6194498;28;20091;-82
2021/12/31 09:03:12;;;;;;;4.22;2.55;;;;;;;;;;6206211;28;20029;-84
2021/12/31 09:06:14;;;;;;;;;;;10.70;99.90;;;;;;6221377;28;20091;-82
2021/12/31 09:09:15;;;;;;;2.20;2.00;;;;;;;;;;6229240;28;20311;-85
2021/12/31 09:12:16;;;;;;;4.55;2.25;;;;;;;;;;6235132;28;20033;-86
2021/12/31 09:15:17;;;;;;;3.78;2.22;;;;;;;;;;6227677;28;20033;-83
2021/12/31 09:18:17;;;;;;;9.10;6.07;;;14.20;99.90;;;;;;6203254;28;20137;-82
2021/12/31 09:21:20;;;;;;;3.28;2.58;;;13.80;99.90;;;;;;6208541;28;20046;-86
2021/12/31 09:24:20;;;;;;;2.67;2.42;;;13.90;99.90;;;;;;6212436;28;20076;-86
2021/12/31 09:27:21;;;;;;;2.97;2.30;;;14.20;99.90;;;;;;6200428;28;20515;-84
2021/12/31 09:30:22;;;;;;;3.40;2.60;;;14.00;99.90;;;;;;6194524;28;20046;-88
2021/12/31 09:33:22;;;;;;;3.00;2.70;;;14.20;99.90;;;;;;6195181;28;20503;-87
2021/12/31 09:36:23;;;;;;;5.43;2.60;;;14.20;99.90;;;;;;6200371;28;20141;-85
2021/12/31 09:39:24;;;;;;;4.75;3.00;;;14.20;99.90;;;;;;6197897;28;20516;-83
2021/12/31 09:42:25;;;;;;;2.90;2.60;;;;;;;;;;6203261;28;20040;-85
2021/12/31 09:45:27;;;;;;;2.88;2.17;;;14.30;99.90;;;;;;6227533;28;20091;-84
2021/12/31 09:48:27;;;;;;;4.28;2.72;;;14.60;99.90;;;;;;6215077;28;20430;-85
2021/12/31 09:51:28;;;;;;;4.05;2.40;;;13.80;99.90;;;;;;6207139;28;20107;-84
2021/12/31 09:54:29;;;;;;;3.03;2.40;;;14.80;99.90;;;;;;6219751;28;20073;-86
2021/12/31 09:57:32;;;;;;;5.20;2.75;;;;;;;;;;6215954;28;20021;-85
2021/12/31 10:00:33;;;;;;;3.30;2.28;;;15.60;99.90;;;;;;6218948;28;20021;-85
2021/12/31 10:03:34;;;;;;;2.60;2.40;;;15.70;99.90;;;;;;6210444;28;20037;-86
2021/12/31 10:06:34;;;;;;;4.10;2.60;;;16.10;99.90;;;;;;6224186;28;20456;-85
2021/12/31 10:09:36;;;;;;;4.45;2.58;;;16.40;99.90;;;;;;6202020;28;20029;-86
2021/12/31 10:12:52;;;;;;;3.35;2.80;;;16.60;99.90;;;;;;6202295;28;20693;-83
2021/12/31 10:15:55;;;;;;;3.08;2.50;;;16.60;99.90;;;;;;6210876;28;20028;-86
2021/12/31 10:19:12;;;;;;;;;;;16.80;99.90;;;;;;6196854;28;20025;-83
2021/12/31 10:22:17;;;;;;;3.30;3.00;;;16.60;99.90;;;;;;6212000;28;19916;-84
2021/12/31 10:25:30;;;;;;;5.47;3.28;;;17.00;99.90;;;;;;6213941;28;20033;-82
2021/12/31 10:28:30;;;;;;;3.40;2.50;;;17.20;99.90;;;;;;6202953;28;20026;-83
2021/12/31 10:31:31;;;;;;;2.78;2.33;;;17.70;99.90;;;;;;6201815;28;20440;-85
2021/12/31 10:34:36;;;;;;;3.47;2.50;;;18.30;99.90;;;;;;6199852;28;20033;-80
2021/12/31 10:37:44;;;;;;;2.38;2.17;;;18.60;99.90;;;;;;6201007;28;20123;-85
2021/12/31 10:40:45;;;;;;;2.55;2.35;;;19.10;99.90;;;;;;6234597;28;20030;-83
2021/12/31 10:43:46;;;;;;;3.20;2.63;;;19.40;99.90;;;;;;6197465;28;20051;-85
2021/12/31 10:46:46;;;;;;;5.82;2.50;;;21.10;99.90;;;;;;6201241;28;20029;-84
2021/12/31 10:50:07;;;;;;;77.15;48.58;;;20.30;99.90;;;;;;6211912;28;20091;-82
2021/12/31 10:53:11;;;;;;;12.52;8.80;;;20.90;98.90;;;;;;6220395;28;20065;-84
2021/12/31 10:56:13;;;;;;;7.30;5.45;;;21.40;97.40;;;;;;6202675;28;20043;-86
2021/12/31 10:59:13;;;;;;;11.40;8.68;;;21.70;96.70;;;;;;6201837;28;20744;-84
2021/12/31 11:02:14;;;;;;;7.10;4.00;;;22.10;95.10;;;;;;6220446;28;20056;-84
2021/12/31 11:05:21;;;;;;;5.90;3.15;;;22.10;94.00;;;;;;6194434;28;20025;-85
2021/12/31 11:08:22;;;;;;;6.68;3.45;;;22.10;92.30;;;;;;6210232;28;20036;-84
2021/12/31 11:11:24;;;;;;;3.08;2.47;;;21.90;99.90;;;;;;6203284;28;20026;-83
2021/12/31 11:14:25;;;;;;;;;;;22.00;93.20;;;;;;6227273;28;20468;-84
2021/12/31 11:17:25;;;;;;;4.53;3.90;;;22.30;93.10;;;;;;6236805;28;19912;-83
2021/12/31 11:20:26;;;;;;;3.42;2.75;;;22.20;99.90;;;;;;6219590;28;20041;-85
2021/12/31 11:23:28;;;;;;;5.75;5.25;;;22.30;95.10;;;;;;6208920;28;20033;-82
2021/12/31 11:26:28;;;;;;;7.28;4.50;;;21.70;94.80;;;;;;6211742;28;20036;-81
2021/12/31 11:29:36;;;;;;;5.32;3.17;;;21.70;95.20;;;;;;6236006;28;20484;-81
2021/12/31 11:32:56;;;;;;;4.25;3.30;;;21.50;95.60;;;;;;6229650;28;20025;-82
2021/12/31 11:36:09;;;;;;;3.17;2.88;;;21.20;95.00;;;;;;6228687;28;20131;-82
2021/12/31 11:39:16;;;;;;;8.02;3.50;;;21.00;96.60;;;;;;6212009;28;20195;-84
2021/12/31 11:42:17;;;;;;;4.53;2.90;;;21.00;98.60;;;;;;6204342;28;20033;-84
2021/12/31 11:45:17;;;;;;;4.85;3.42;;;20.90;98.00;;;;;;6206874;28;20090;-86
2021/12/31 11:48:43;;;;;;;5.72;4.60;;;20.90;99.30;;;;;;6226714;28;20040;-86
2021/12/31 11:51:56;;;;;;;4.40;3.17;;;20.80;98.50;;;;;;6237747;28;20044;-84
2021/12/31 11:55:19;;;;;;;2.35;2.00;;;20.90;97.60;;;;;;6212266;28;20029;-85
2021/12/31 11:58:46;;;;;;;4.35;3.40;;;20.70;99.90;;;;;;6218846;28;20478;-85
2021/12/31 12:01:48;;;;;;;4.13;2.70;;;20.60;93.50;;;;;;6230912;28;20049;-85
2021/12/31 12:05:02;;;;;;;3.60;2.53;;;20.80;92.40;;;;;;6219104;28;20383;-85
2021/12/31 12:08:04;;;;;;;4.15;2.40;;;20.90;92.20;;;;;;6249736;28;20029;-82
2021/12/31 12:11:05;;;;;;;2.28;1.95;;;20.70;94.20;;;;;;6219609;28;20037;-84
2021/12/31 12:14:28;;;;;;;2.15;1.83;;;20.80;91.90;;;;;;6200848;28;20084;-87
2021/12/31 12:17:29;;;;;;;3.70;2.55;;;20.70;92.60;;;;;;6227726;28;20041;-84
2021/12/31 12:20:35;;;;;;;3.95;2.42;;;20.60;91.90;;;;;;6232372;28;20041;-85
2021/12/31 12:23:35;;;;;;;2.40;2.17;;;20.50;92.00;;;;;;6210070;28;20117;-82
2021/12/31 12:26:36;;;;;;;2.28;1.85;;;20.30;90.90;;;;;;6218891;28;20025;-84
2021/12/31 12:29:39;;;;;;;1.80;1.70;;;20.10;91.20;;;;;;6206090;28;20053;-81
2021/12/31 12:32:52;;;;;;;2.33;2.13;;;20.00;90.60;;;;;;6220728;28;20542;-85
2021/12/31 12:35:54;;;;;;;2.35;1.92;;;19.80;89.70;;;;;;6210562;28;20032;-84
2021/12/31 12:39:02;;;;;;;1.60;1.35;;;19.60;90.50;;;;;;6212618;28;20064;-83
2021/12/31 12:42:07;;;;;;;1.30;1.20;;;19.50;90.40;;;;;;6218454;28;20077;-86
2021/12/31 12:45:08;;;;;;;1.45;1.23;;;19.40;89.50;;;;;;6209720;28;20032;-87
2021/12/31 12:48:08;;;;;;;1.23;1.23;;;19.10;84.00;;;;;;6204967;28;20574;-86
2021/12/31 12:51:11;;;;;;;1.90;1.70;;;19.50;87.90;;;;;;6204132;28;20118;-84
2021/12/31 12:54:17;;;;;;;1.50;1.40;;;19.10;84.90;;;;;;6212414;28;20044;-85
2021/12/31 12:57:25;;;;;;;1.65;1.55;;;19.10;81.00;;;;;;6203822;28;20025;-80
2021/12/31 13:00:40;;;;;;;3.22;1.40;;;19.10;81.10;;;;;;6236352;28;20051;-82
2021/12/31 13:03:54;;;;;;;2.08;1.30;;;19.10;82.90;;;;;;6214910;28;20120;-82
2021/12/31 13:06:55;;;;;;;1.50;1.40;;;19.00;80.60;;;;;;6195742;28;20431;-84
2021/12/31 13:10:05;;;;;;;1.50;1.40;;;19.00;82.10;;;;;;6210136;28;20472;-81
2021/12/31 13:13:06;;;;;;;1.60;1.48;;;18.90;82.60;;;;;;6203684;28;20411;-81
2021/12/31 13:16:07;;;;;;;1.50;1.40;;;18.80;82.10;;;;;;6196322;28;20033;-84
2021/12/31 13:19:10;;;;;;;1.75;1.63;;;18.70;81.10;;;;;;6204009;28;20029;-81
2021/12/31 13:22:11;;;;;;;16.38;3.03;;;18.60;80.30;;;;;;6197026;28;20044;-80
2021/12/31 13:25:12;;;;;;;13.13;3.27;;;18.60;87.10;;;;;;6210403;28;20068;-79
2021/12/31 13:28:16;;;;;;;9.95;2.67;;;18.70;90.80;;;;;;6226062;28;20491;-80
2021/12/31 13:31:42;;;;;;;6.95;2.00;;;18.70;82.30;;;;;;6226838;28;20445;-78
2021/12/31 13:34:44;;;;;;;2.08;1.73;;;18.70;91.20;;;;;;6228114;28;20034;-79
2021/12/31 13:37:45;;;;;;;7.30;2.53;;;18.60;83.40;;;;;;6248416;28;20556;-79
2021/12/31 13:40:49;;;;;;;2.20;1.60;;;18.60;84.70;;;;;;6214494;28;20032;-79
2021/12/31 13:43:57;;;;;;;1.35;1.05;;;18.60;75.10;;;;;;6225393;28;20029;-82
2021/12/31 13:47:07;;;;;;;1.50;1.40;;;18.50;77.50;;;;;;6194133;28;20025;-82
2021/12/31 13:50:08;;;;;;;2.78;1.48;;;18.20;88.30;;;;;;6228227;28;20376;-82
2021/12/31 13:53:22;;;;;;;1.35;1.25;;;18.30;77.10;;;;;;6198265;28;20045;-82
2021/12/31 13:56:37;;;;;;;1.55;1.45;;;18.30;77.00;;;;;;6212989;28;20060;-81
2021/12/31 13:59:38;;;;;;;1.60;1.50;;;18.20;79.50;;;;;;6204542;28;20033;-82
2021/12/31 14:02:39;;;;;;;3.15;1.38;;;18.10;81.50;;;;;;6210322;28;20087;-82
2021/12/31 14:05:47;;;;;;;1.45;1.25;;;18.20;90.30;;;;;;6193564;28;20026;-81
2021/12/31 14:08:49;;;;;;;2.30;1.83;;;17.80;82.60;;;;;;6226849;28;20037;-83
2021/12/31 14:11:50;;;;;;;2.72;1.60;;;17.60;88.20;;;;;;6228077;28;20041;-84
2021/12/31 14:14:50;;;;;;;2.45;1.65;;;17.50;88.70;;;;;;6236530;28;20430;-82
2021/12/31 14:17:51;;;;;;;1.55;1.45;;;17.60;88.80;;;;;;6212646;28;20068;-82
2021/12/31 14:20:52;;;;;;;2.72;1.23;;;17.40;80.90;;;;;;6223577;28;20030;-84
2021/12/31 14:23:52;;;;;;;1.17;1.10;;;17.30;81.20;;;;;;6209058;28;20525;-83
2021/12/31 14:26:54;;;;;;;1.45;1.38;;;17.20;81.30;;;;;;6193436;28;20071;-82
2021/12/31 14:29:55;;;;;;;2.20;2.00;;;17.00;81.90;;;;;;6197245;28;20033;-82
2021/12/31 14:32:58;;;;;;;1.55;1.42;;;16.80;83.20;;;;;;6195005;28;20629;-83
2021/12/31 14:35:59;;;;;;;1.25;1.25;;;16.70;81.30;;;;;;6192680;28;20083;-82
2021/12/31 14:38:59;;;;;;;1.35;1.20;;;16.50;83.50;;;;;;6191586;28;20507;-82
2021/12/31 14:42:00;;;;;;;1.60;1.50;;;16.40;83.40;;;;;;6225884;28;20037;-80
2021/12/31 14:45:02;;;;;;;1.10;1.10;;;16.80;84.90;;;;;;6215297;28;20801;-82
2021/12/31 14:48:04;;;;;;;1.23;1.10;;;16.10;80.60;;;;;;6208352;28;20033;-82
2021/12/31 14:51:05;;;;;;;2.65;1.70;;;16.00;84.00;;;;;;6230482;28;20025;-83
2021/12/31 14:54:08;;;;;;;2.33;1.45;;;15.90;83.90;;;;;;6216553;28;20052;-84
2021/12/31 14:57:10;;;;;;;1.60;1.50;;;15.90;85.50;;;;;;6204688;28;20084;-83
2021/12/31 15:00:12;;;;;;;1.50;1.40;;;15.70;84.80;;;;;;6200834;28;20112;-82
2021/12/31 15:03:13;;;;;;;1.83;1.50;;;15.70;84.40;;;;;;6200942;28;20033;-87
2021/12/31 15:06:13;;;;;;;2.40;1.67;;;15.50;86.50;;;;;;6224067;28;20040;-86
2021/12/31 15:09:14;;;;;;;1.73;1.63;;;15.40;87.20;;;;;;6216012;28;20029;-85
2021/12/31 15:12:15;;;;;;;1.73;1.63;;;15.30;86.40;;;;;;6204537;28;20542;-83
2021/12/31 15:15:15;;;;;;;5.15;1.80;;;15.20;85.40;;;;;;6224300;28;20040;-85
2021/12/31 15:18:16;;;;;;;1.70;1.60;;;15.20;87.10;;;;;;6200315;28;20452;-81
2021/12/31 15:21:18;;;;;;;13.18;4.05;;;15.20;86.50;;;;;;6209868;28;20028;-79
2021/12/31 15:24:22;;;;;;;4.55;2.60;;;15.20;94.00;;;;;;6220734;28;20033;-81
2021/12/31 15:27:22;;;;;;;3.65;1.90;;;15.20;86.90;;;;;;6219734;28;20087;-83
2021/12/31 15:30:26;;;;;;;1.85;1.75;;;15.10;86.50;;;;;;6204501;28;20626;-83
2021/12/31 15:33:26;;;;;;;4.28;3.88;;;15.00;88.20;;;;;;6221169;28;20049;-81
2021/12/31 15:36:27;;;;;;;1.83;1.70;;;14.90;86.90;;;;;;6212085;28;20439;-84
2021/12/31 15:39:29;;;;;;;3.17;2.88;;;14.90;87.00;;;;;;6202242;28;20079;-83
2021/12/31 15:42:32;;;;;;;2.60;2.40;;;14.70;87.20;;;;;;6207964;28;20124;-84
2021/12/31 15:45:33;;;;;;;8.20;7.50;;;14.70;86.00;;;;;;6216963;28;20047;-84
2021/12/31 15:48:37;;;;;;;4.35;2.75;;;14.40;95.20;;;;;;6206795;28;20037;-84
2021/12/31 15:51:37;;;;;;;3.55;3.17;;;14.30;99.90;;;;;;6199507;28;20049;-85
2021/12/31 15:54:38;;;;;;;5.65;3.10;;;13.60;99.90;;;;;;6203249;28;20502;-86
2021/12/31 15:57:38;;;;;;;10.60;4.00;;;13.80;99.90;;;;;;6218621;28;20053;-80
2021/12/31 16:00:39;;;;;;;3.72;2.90;;;13.70;99.90;;;;;;6218902;28;20025;-80
2021/12/31 16:03:40;;;;;;;3.60;3.05;;;;;;;;;;6202680;28;20513;-81
2021/12/31 16:06:41;;;;;;;6.55;3.92;;;13.20;99.90;;;;;;6251544;28;20021;-82
2021/12/31 16:09:42;;;;;;;7.30;4.72;;;13.60;99.90;;;;;;6200189;28;20044;-81
2021/12/31 16:12:43;;;;;;;4.60;3.33;;;13.00;99.90;;;;;;6199819;28;20132;-81
2021/12/31 16:15:44;;;;;;;4.55;4.07;;;13.00;99.90;;;;;;6215706;28;20045;-84
2021/12/31 16:18:45;;;;;;;4.47;3.50;;;;;;;;;;6198564;28;20061;-84